Time;durP1;ratioP1;P1;durP2;ratioP2;P2;SDS_P1;SDS_P2;PMS_P1;PMS_P2;Temp;Humidity;BMP_temperature;BMP_pressure;BME280_temperature;BME280_humidity;BME280_pressure;Samples;Min_cycle;Max_cycle;Signal;HPM_P1;HPM_P2
2022/05/22 00:01:57;;;;;;;;;3.00;3.00;;;;;;;;5123625;27;63740;-77
2022/05/22 00:04:23;;;;;;;;;3.00;1.50;;;;;;;;5125091;27;62066;-77
2022/05/22 00:06:49;;;;;;;;;2.00;2.00;;;;;;;;5123979;27;61942;-77
2022/05/22 00:09:14;;;;;;;;;1.00;1.00;;;;;;;;5124011;27;61901;-77
2022/05/22 00:11:39;;;;;;;;;2.25;2.00;;;;;;;;5124319;27;62211;-77
2022/05/22 00:14:05;;;;;;;;;1.25;1.25;;;;;;;;5124000;27;62046;-77
2022/05/22 00:16:37;;;;;;;;;2.00;2.00;;;;;;;;5125087;27;61815;-77
2022/05/22 00:19:06;;;;;;;;;1.00;1.00;;;;;;;;5117625;27;61735;-77
2022/05/22 00:21:32;;;;;;;;;3.75;2.00;;;;;;;;5124565;27;62126;-77
2022/05/22 00:23:57;;;;;;;;;2.25;2.00;;;;;;;;5125176;27;61903;-77
2022/05/22 00:26:22;;;;;;;;;2.25;2.00;;;;;;;;5125005;27;61704;-77
2022/05/22 00:28:48;;;;;;;;;2.00;2.00;;;;;;;;5123930;27;62292;-77
2022/05/22 00:31:13;;;;;;;;;2.00;1.00;;;;;;;;5124448;27;61802;-77
2022/05/22 00:33:39;;;;;;;;;2.25;2.25;;;;;;;;5123264;27;61989;-77
2022/05/22 00:36:05;;;;;;;;;4.00;1.00;;;;;;;;5125156;27;61781;-77
2022/05/22 00:38:30;;;;;;;;;3.00;2.00;;;;;;;;5124891;27;61740;-77
2022/05/22 00:40:55;;;;;;;;;2.00;2.00;;;;;;;;5124024;27;62932;-77
2022/05/22 00:43:25;;;;;;;;;1.50;1.00;;;;;;;;5124870;27;61762;-77
2022/05/22 00:45:50;;;;;;;;;3.75;2.00;;;;;;;;5123436;27;61782;-77
2022/05/22 00:48:15;;;;;;;;;2.25;2.25;;;;;;;;5125165;27;61793;-77
2022/05/22 00:50:41;;;;;;;;;3.25;2.00;;;;;;;;5123833;27;62542;-77
2022/05/22 00:53:06;;;;;;;;;2.00;1.25;;;;;;;;5123307;27;62192;-77
2022/05/22 00:55:33;;;;;;;;;1.75;1.75;;;;;;;;5124499;27;61870;-77
2022/05/22 00:58:05;;;;;;;;;2.00;2.00;;;;;;;;5123585;27;62114;-77
2022/05/22 01:00:35;;;;;;;;;1.50;1.50;;;;;;;;5121957;27;64357;-77
2022/05/22 01:05:48;;;;;;;;;2.00;1.75;;;;;;;;5124188;27;61966;-77
2022/05/22 01:08:13;;;;;;;;;3.00;2.00;;;;;;;;5124639;27;61830;-77
2022/05/22 01:11:02;;;;;;;;;4.25;2.00;;;;;;;;5122478;27;63655;-77
2022/05/22 01:13:31;;;;;;;;;2.00;2.00;;;;;;;;5115720;27;62852;-77
2022/05/22 01:15:56;;;;;;;;;1.50;1.50;;;;;;;;5124249;27;62112;-77
2022/05/22 01:18:21;;;;;;;;;4.50;3.25;;;;;;;;5117241;27;61792;-77
2022/05/22 01:20:48;;;;;;;;;5.25;5.00;;;;;;;;5123412;27;62782;-77
2022/05/22 01:23:13;;;;;;;;;6.50;5.00;;;;;;;;5124495;27;61877;-77
2022/05/22 01:25:39;;;;;;;;;5.00;4.00;;;;;;;;5123891;27;61684;-77
2022/05/22 01:28:04;;;;;;;;;7.00;5.00;;;;;;;;5124631;27;61721;-77
2022/05/22 01:30:30;;;;;;;;;4.50;4.00;;;;;;;;5123604;27;61870;-77
2022/05/22 01:32:55;;;;;;;;;3.75;3.25;;;;;;;;5124172;27;61819;-77
2022/05/22 01:35:22;;;;;;;;;5.75;3.75;;;;;;;;5124183;27;61920;-77
2022/05/22 01:37:48;;;;;;;;;7.00;4.50;;;;;;;;5123653;27;61841;-77
2022/05/22 01:40:14;;;;;;;;;9.50;4.25;;;;;;;;5123398;27;62556;-77
2022/05/22 01:42:40;;;;;;;;;1.75;1.75;;;;;;;;5124242;27;61709;-77
2022/05/22 01:45:06;;;;;;;;;4.50;4.50;;;;;;;;5122426;27;61718;-77
2022/05/22 01:47:32;;;;;;;;;3.00;2.00;;;;;;;;5124057;27;62002;-77
2022/05/22 01:49:58;;;;;;;;;2.50;2.00;;;;;;;;5122879;27;61942;-77
2022/05/22 01:52:23;;;;;;;;;3.50;2.00;;;;;;;;5123956;27;61906;-77
2022/05/22 01:54:48;;;;;;;;;3.00;2.25;;;;;;;;5122391;27;61914;-77
2022/05/22 01:57:13;;;;;;;;;2.25;2.25;;;;;;;;5124109;27;61941;-77
2022/05/22 01:59:39;;;;;;;;;2.50;2.50;;;;;;;;5123174;27;62668;-77
2022/05/22 02:02:04;;;;;;;;;1.00;1.00;;;;;;;;5122238;27;61776;-77
2022/05/22 02:04:30;;;;;;;;;4.00;2.00;;;;;;;;5123652;27;61917;-77
2022/05/22 02:09:39;;;;;;;;;2.00;2.00;;;;;;;;5122857;27;62437;-77
2022/05/22 02:12:05;;;;;;;;;2.75;1.75;;;;;;;;5121770;27;61877;-77
2022/05/22 02:14:30;;;;;;;;;3.00;3.00;;;;;;;;5123599;27;61807;-77
2022/05/22 02:16:56;;;;;;;;;4.00;2.25;;;;;;;;5123395;27;61711;-77
2022/05/22 02:19:21;;;;;;;;;2.00;2.00;;;;;;;;5115294;27;61954;-77
2022/05/22 02:21:46;;;;;;;;;4.00;2.25;;;;;;;;5123326;27;61959;-77
2022/05/22 02:24:11;;;;;;;;;2.00;2.00;;;;;;;;5123472;27;61896;-77
2022/05/22 02:26:37;;;;;;;;;2.75;2.50;;;;;;;;5123720;27;61823;-77
2022/05/22 02:29:02;;;;;;;;;2.50;2.00;;;;;;;;5122653;27;62254;-77
2022/05/22 02:31:27;;;;;;;;;1.00;1.00;;;;;;;;5123644;27;62354;-77
2022/05/22 02:33:52;;;;;;;;;2.50;2.50;;;;;;;;5122957;27;61859;-77
2022/05/22 02:36:18;;;;;;;;;3.00;3.00;;;;;;;;5123045;27;62100;-77
2022/05/22 02:38:43;;;;;;;;;3.00;2.25;;;;;;;;5121167;27;64792;-77
2022/05/22 02:41:12;;;;;;;;;4.00;4.00;;;;;;;;5123028;27;61843;-77
2022/05/22 02:43:37;;;;;;;;;3.50;1.50;;;;;;;;5122033;27;61779;-77
2022/05/22 02:46:07;;;;;;;;;2.00;2.00;;;;;;;;5123020;27;61732;-77
2022/05/22 02:48:32;;;;;;;;;3.00;1.00;;;;;;;;5122630;27;63022;-77
2022/05/22 02:50:57;;;;;;;;;4.25;3.00;;;;;;;;5122431;27;61775;-77
2022/05/22 02:53:23;;;;;;;;;4.50;2.00;;;;;;;;5123305;27;61775;-77
2022/05/22 02:55:48;;;;;;;;;3.75;2.50;;;;;;;;5122934;27;61709;-77
2022/05/22 02:58:13;;;;;;;;;2.50;2.25;;;;;;;;5122269;27;63211;-77
2022/05/22 03:00:39;;;;;;;;;3.50;3.50;;;;;;;;5123208;27;61745;-77
2022/05/22 03:03:05;;;;;;;;;3.25;3.25;;;;;;;;5122834;27;61898;-77
2022/05/22 03:06:38;;;;;;;;;4.50;3.00;;;;;;;;5122710;27;61840;-77
2022/05/22 03:08:16;;;;;;;;;4.25;4.00;;;;;;;;5121623;27;61993;-77
2022/05/22 03:10:42;;;;;;;;;6.25;3.00;;;;;;;;5122580;27;61897;-77
2022/05/22 03:13:07;;;;;;;;;4.25;2.75;;;;;;;;5122589;27;61892;-77
2022/05/22 03:15:32;;;;;;;;;4.75;4.00;;;;;;;;5123070;27;61846;-77
2022/05/22 03:18:08;;;;;;;;;7.00;6.00;;;;;;;;5114456;27;61844;-77
2022/05/22 03:20:33;;;;;;;;;4.50;4.50;;;;;;;;5122503;27;61770;-77
2022/05/22 03:22:59;;;;;;;;;7.25;5.00;;;;;;;;5122746;27;61960;-77
2022/05/22 03:25:24;;;;;;;;;5.75;5.75;;;;;;;;5125437;27;61661;-77
2022/05/22 03:27:49;;;;;;;;;6.00;5.25;;;;;;;;5125634;27;62571;-77
2022/05/22 03:30:15;;;;;;;;;4.50;4.50;;;;;;;;5126085;27;62006;-77
2022/05/22 03:32:40;;;;;;;;;9.75;6.00;;;;;;;;5126430;27;61874;-77
2022/05/22 03:35:06;;;;;;;;;4.75;3.25;;;;;;;;5124439;27;61729;-77
2022/05/22 03:37:31;;;;;;;;;3.00;2.75;;;;;;;;5124042;27;63833;-77
2022/05/22 03:39:56;;;;;;;;;5.50;3.00;;;;;;;;5126070;27;61729;-77
2022/05/22 03:42:21;;;;;;;;;3.00;3.00;;;;;;;;5125876;27;62385;-77
2022/05/22 03:44:47;;;;;;;;;3.00;2.00;;;;;;;;5126487;27;62008;-77
2022/05/22 03:47:12;;;;;;;;;3.75;3.75;;;;;;;;5123871;27;64956;-77
2022/05/22 03:49:37;;;;;;;;;5.00;4.00;;;;;;;;5125847;27;61946;-77
2022/05/22 03:52:03;;;;;;;;;2.00;2.00;;;;;;;;5126422;27;61732;-77
2022/05/22 03:54:28;;;;;;;;;6.75;5.00;;;;;;;;5124640;27;62076;-77
2022/05/22 03:56:54;;;;;;;;;4.75;2.75;;;;;;;;5125238;27;61974;-77
2022/05/22 03:59:20;;;;;;;;;5.75;3.00;;;;;;;;5125949;27;62195;-77
2022/05/22 04:01:45;;;;;;;;;3.50;3.00;;;;;;;;5126093;27;61764;-77
2022/05/22 04:04:11;;;;;;;;;3.25;2.00;;;;;;;;5125673;27;62155;-77
2022/05/22 04:06:36;;;;;;;;;2.75;2.75;;;;;;;;5123649;27;63590;-77
2022/05/22 04:09:01;;;;;;;;;2.50;2.50;;;;;;;;5124143;27;62026;-77
2022/05/22 04:11:26;;;;;;;;;0.00;0.00;;;;;;;;5125551;27;61826;-77
2022/05/22 04:13:52;;;;;;;;;3.00;3.00;;;;;;;;5123370;27;61884;-77
2022/05/22 04:16:17;;;;;;;;;1.50;1.50;;;;;;;;5104227;27;61950;-77
2022/05/22 04:18:42;;;;;;;;;4.00;3.00;;;;;;;;5119486;27;61873;-77
2022/05/22 04:21:08;;;;;;;;;3.75;3.75;;;;;;;;5125529;27;61904;-77
2022/05/22 04:26:17;;;;;;;;;5.00;2.25;;;;;;;;5124768;27;61784;-77
2022/05/22 04:28:42;;;;;;;;;4.25;2.75;;;;;;;;5125649;27;61798;-77
2022/05/22 04:31:08;;;;;;;;;4.00;3.00;;;;;;;;5123974;27;62152;-77
2022/05/22 04:33:33;;;;;;;;;3.00;3.00;;;;;;;;5125363;27;61602;-77
2022/05/22 04:35:59;;;;;;;;;4.00;3.00;;;;;;;;5123136;27;61998;-77
2022/05/22 04:38:24;;;;;;;;;4.50;3.25;;;;;;;;5125034;27;61898;-77
2022/05/22 04:40:56;;;;;;;;;5.25;2.00;;;;;;;;5125263;27;61957;-77
2022/05/22 04:43:22;;;;;;;;;8.00;2.50;;;;;;;;5124186;27;61785;-77
2022/05/22 04:45:47;;;;;;;;;3.50;3.00;;;;;;;;5124820;27;61764;-77
2022/05/22 04:48:12;;;;;;;;;3.75;3.75;;;;;;;;5123573;27;61933;-77
2022/05/22 04:50:37;;;;;;;;;6.75;4.50;;;;;;;;5124614;27;61917;-77
2022/05/22 04:53:03;;;;;;;;;6.25;3.00;;;;;;;;5123896;27;61875;-77
2022/05/22 04:55:28;;;;;;;;;3.75;2.75;;;;;;;;5124485;27;61689;-77
2022/05/22 04:57:54;;;;;;;;;2.00;2.00;;;;;;;;5123540;27;61993;-77
2022/05/22 05:00:19;;;;;;;;;3.00;3.00;;;;;;;;5123700;27;61964;-77
2022/05/22 05:02:44;;;;;;;;;4.50;3.00;;;;;;;;5125011;27;61644;-78
2022/05/22 05:05:10;;;;;;;;;3.50;3.50;;;;;;;;5123787;27;62189;-78
2022/05/22 05:07:41;;;;;;;;;4.25;3.00;;;;;;;;5123989;27;61919;-78
2022/05/22 05:10:07;;;;;;;;;3.25;3.25;;;;;;;;5124932;27;61926;-78
2022/05/22 05:12:36;;;;;;;;;4.00;2.00;;;;;;;;5124779;27;61965;-78
2022/05/22 05:15:01;;;;;;;;;4.50;2.00;;;;;;;;5123791;27;62143;-78
2022/05/22 05:17:26;;;;;;;;;3.75;3.75;;;;;;;;5120116;27;62022;-78
2022/05/22 05:19:51;;;;;;;;;2.50;2.50;;;;;;;;5122005;27;61802;-78
2022/05/22 05:22:18;;;;;;;;;5.75;3.75;;;;;;;;5124987;27;61849;-78
2022/05/22 05:24:43;;;;;;;;;5.00;3.50;;;;;;;;5123897;27;62697;-78
2022/05/22 05:27:08;;;;;;;;;4.50;3.00;;;;;;;;5124320;27;61863;-78
2022/05/22 05:29:33;;;;;;;;;5.25;4.25;;;;;;;;5124620;27;62013;-78
2022/05/22 05:31:59;;;;;;;;;3.75;3.00;;;;;;;;5124494;27;61855;-78
2022/05/22 05:34:24;;;;;;;;;5.00;2.75;;;;;;;;5123740;27;61936;-78
2022/05/22 05:36:49;;;;;;;;;4.00;2.50;;;;;;;;5124264;27;62509;-78
2022/05/22 05:39:16;;;;;;;;;4.25;4.25;;;;;;;;5122889;27;62601;-78
2022/05/22 05:41:44;;;;;;;;;4.75;4.00;;;;;;;;5124516;27;62062;-78
2022/05/22 05:44:10;;;;;;;;;4.00;3.00;;;;;;;;5124051;27;61763;-78
2022/05/22 05:46:36;;;;;;;;;3.75;3.25;;;;;;;;5121945;27;62302;-78
2022/05/22 05:49:02;;;;;;;;;3.75;3.00;;;;;;;;5123706;27;62069;-78
2022/05/22 05:51:28;;;;;;;;;5.00;4.75;;;;;;;;5123185;27;62100;-78
2022/05/22 05:53:53;;;;;;;;;3.00;3.00;;;;;;;;5123542;27;61757;-78
2022/05/22 05:56:18;;;;;;;;;4.00;2.50;;;;;;;;5124267;27;61884;-78
2022/05/22 05:58:43;;;;;;;;;4.75;4.00;;;;;;;;5124259;27;62006;-78
2022/05/22 06:01:13;;;;;;;;;7.00;4.00;;;;;;;;5123750;27;61760;-78
2022/05/22 06:03:38;;;;;;;;;3.25;3.00;;;;;;;;5123236;27;63058;-78
2022/05/22 06:06:07;;;;;;;;;8.50;6.25;;;;;;;;5123767;27;61674;-78
2022/05/22 06:08:33;;;;;;;;;3.00;3.00;;;;;;;;5123729;27;61948;-78
2022/05/22 06:10:58;;;;;;;;;4.00;4.00;;;;;;;;5123607;27;61755;-78
2022/05/22 06:13:24;;;;;;;;;3.00;3.00;;;;;;;;5123238;27;62350;-78
2022/05/22 06:15:49;;;;;;;;;3.25;3.00;;;;;;;;5123438;27;61799;-78
2022/05/22 06:18:14;;;;;;;;;3.50;3.25;;;;;;;;5123672;27;61810;-78
2022/05/22 06:20:40;;;;;;;;;5.50;3.00;;;;;;;;5123608;27;62059;-78
2022/05/22 06:23:05;;;;;;;;;3.00;3.00;;;;;;;;5123064;27;61820;-78
2022/05/22 06:25:30;;;;;;;;;4.75;4.50;;;;;;;;5123672;27;62057;-78
2022/05/22 06:27:56;;;;;;;;;5.50;4.25;;;;;;;;5123991;27;61897;-78
2022/05/22 06:30:22;;;;;;;;;3.75;3.75;;;;;;;;5123673;27;61818;-78
2022/05/22 06:32:48;;;;;;;;;5.25;4.50;;;;;;;;5122961;27;62420;-78
2022/05/22 06:35:14;;;;;;;;;6.00;3.75;;;;;;;;5122894;27;62086;-81
2022/05/22 06:37:39;;;;;;;;;4.00;4.00;;;;;;;;5122536;27;61895;-80
2022/05/22 06:40:05;;;;;;;;;5.00;4.00;;;;;;;;5121259;27;62113;-80
2022/05/22 06:42:34;;;;;;;;;4.00;4.00;;;;;;;;5122548;27;62667;-80
2022/05/22 06:44:59;;;;;;;;;4.25;4.00;;;;;;;;5121586;27;61756;-80
2022/05/22 06:47:26;;;;;;;;;10.25;2.00;;;;;;;;5122965;27;61951;-78
2022/05/22 06:49:52;;;;;;;;;5.25;3.00;;;;;;;;5122918;27;61732;-78
2022/05/22 06:52:17;;;;;;;;;4.50;4.00;;;;;;;;5122540;27;61771;-79
2022/05/22 06:54:42;;;;;;;;;3.00;3.00;;;;;;;;5123149;27;61664;-78
2022/05/22 06:57:08;;;;;;;;;4.25;3.00;;;;;;;;5122308;27;62016;-79
2022/05/22 06:59:33;;;;;;;;;3.00;3.00;;;;;;;;5124499;27;61834;-79
2022/05/22 07:02:00;;;;;;;;;3.00;3.00;;;;;;;;5127531;27;62741;-80
2022/05/22 07:04:25;;;;;;;;;4.75;3.75;;;;;;;;5125608;27;62231;-79
2022/05/22 07:06:51;;;;;;;;;4.00;4.00;;;;;;;;5124444;27;61976;-79
2022/05/22 07:09:16;;;;;;;;;3.00;3.00;;;;;;;;5123733;27;62087;-80
2022/05/22 07:11:41;;;;;;;;;5.50;2.75;;;;;;;;5124292;27;63733;-79
2022/05/22 07:14:07;;;;;;;;;5.00;4.00;;;;;;;;5121165;27;61836;-80
2022/05/22 07:16:36;;;;;;;;;6.25;3.00;;;;;;;;5105818;27;61959;-79
2022/05/22 07:19:02;;;;;;;;;3.00;3.00;;;;;;;;5122523;27;61966;-80
2022/05/22 07:21:27;;;;;;;;;4.00;3.00;;;;;;;;5125658;27;62615;-80
2022/05/22 07:23:53;;;;;;;;;3.00;3.00;;;;;;;;5126216;27;61666;-81
2022/05/22 07:26:21;;;;;;;;;3.00;3.00;;;;;;;;5124304;27;61799;-79
2022/05/22 07:28:47;;;;;;;;;4.00;4.00;;;;;;;;5124793;27;61743;-80
2022/05/22 07:31:17;;;;;;;;;2.75;2.75;;;;;;;;5123983;27;63382;-81
2022/05/22 07:33:42;;;;;;;;;3.00;3.00;;;;;;;;5126013;27;61826;-81
2022/05/22 07:36:07;;;;;;;;;8.00;5.00;;;;;;;;5125223;27;61953;-80
2022/05/22 07:38:33;;;;;;;;;3.25;3.25;;;;;;;;5124104;27;61741;-80
2022/05/22 07:40:58;;;;;;;;;2.00;2.00;;;;;;;;5124573;27;61893;-79
2022/05/22 07:43:23;;;;;;;;;3.00;3.00;;;;;;;;5125607;27;61937;-80
2022/05/22 07:45:49;;;;;;;;;4.00;2.75;;;;;;;;5124175;27;62140;-80
2022/05/22 07:48:15;;;;;;;;;1.50;1.50;;;;;;;;5124316;27;61763;-79
2022/05/22 07:50:41;;;;;;;;;2.00;2.00;;;;;;;;5124535;27;62485;-80
2022/05/22 07:53:06;;;;;;;;;3.50;2.50;;;;;;;;5123793;27;62042;-79
2022/05/22 07:55:31;;;;;;;;;3.00;3.00;;;;;;;;5125036;27;61825;-79
2022/05/22 07:57:57;;;;;;;;;2.00;2.00;;;;;;;;5125023;27;62183;-79
2022/05/22 08:00:22;;;;;;;;;1.75;1.75;;;;;;;;5124556;27;61936;-79
2022/05/22 08:02:47;;;;;;;;;2.00;2.00;;;;;;;;5123935;27;62067;-78
2022/05/22 08:05:14;;;;;;;;;2.25;2.25;;;;;;;;5122886;27;62400;-79
2022/05/22 08:07:39;;;;;;;;;4.25;3.00;;;;;;;;5124550;27;61922;-80
2022/05/22 08:10:06;;;;;;;;;1.75;1.75;;;;;;;;5112436;27;62775;-81
2022/05/22 08:12:35;;;;;;;;;2.00;2.00;;;;;;;;5117310;27;62063;-81
2022/05/22 08:15:00;;;;;;;;;2.00;2.00;;;;;;;;5123218;27;62051;-81
2022/05/22 08:17:26;;;;;;;;;2.50;2.50;;;;;;;;5125257;27;61836;-80
2022/05/22 08:19:51;;;;;;;;;2.75;1.75;;;;;;;;5122316;27;63216;-82
2022/05/22 08:22:17;;;;;;;;;3.00;2.00;;;;;;;;5121046;27;61788;-80
2022/05/22 08:24:43;;;;;;;;;2.25;2.25;;;;;;;;5122969;27;61949;-82
2022/05/22 08:27:08;;;;;;;;;3.25;3.00;;;;;;;;5123478;27;61976;-81
2022/05/22 08:29:33;;;;;;;;;3.00;1.75;;;;;;;;5123824;27;62304;-81
2022/05/22 08:31:59;;;;;;;;;3.25;3.25;;;;;;;;5122723;27;62088;-82
2022/05/22 08:34:24;;;;;;;;;0.75;0.75;;;;;;;;5122847;27;61839;-85
2022/05/22 08:36:51;;;;;;;;;2.00;2.00;;;;;;;;5123173;27;61901;-79
2022/05/22 08:39:17;;;;;;;;;3.00;1.00;;;;;;;;5120285;27;62693;-84
2022/05/22 08:41:48;;;;;;;;;2.75;2.75;;;;;;;;5119871;27;61912;-84
2022/05/22 08:44:16;;;;;;;;;3.00;2.00;;;;;;;;5119858;27;62144;-83
2022/05/22 08:46:45;;;;;;;;;1.00;1.00;;;;;;;;5119914;27;61992;-84
2022/05/22 08:49:21;;;;;;;;;3.25;2.00;;;;;;;;5118849;27;64508;-80
2022/05/22 08:51:51;;;;;;;;;2.75;2.00;;;;;;;;5123054;27;61932;-82
2022/05/22 08:54:20;;;;;;;;;3.33;2.00;;;;;;;;5121283;27;61804;-83
2022/05/22 08:59:34;;;;;;;;;2.00;1.00;;;;;;;;5116787;27;62398;-83
2022/05/22 09:01:59;;;;;;;;;1.00;1.00;;;;;;;;5119982;27;61794;-83
2022/05/22 09:04:32;;;;;;;;;4.00;2.00;;;;;;;;5123657;27;61752;-78
2022/05/22 09:07:17;;;;;;;;;2.00;1.00;;;;;;;;5121597;27;62101;-78
2022/05/22 09:09:44;;;;;;;;;1.67;1.00;;;;;;;;5118707;27;63554;-78
2022/05/22 09:12:09;;;;;;;;;3.67;2.33;;;;;;;;5122462;27;62021;-78
2022/05/22 09:14:42;;;;;;;;;1.33;0.67;;;;;;;;5123100;27;61708;-78
2022/05/22 09:17:18;;;;;;;;;3.33;1.00;;;;;;;;5123264;27;61866;-78
2022/05/22 09:19:43;;;;;;;;;0.67;0.67;;;;;;;;5117193;27;65338;-78
2022/05/22 09:22:15;;;;;;;;;1.00;1.00;;;;;;;;5122832;27;62102;-78
2022/05/22 09:24:53;;;;;;;;;0.67;0.67;;;;;;;;5121838;27;62158;-78
2022/05/22 09:27:25;;;;;;;;;3.67;2.00;;;;;;;;5122997;27;61964;-78
2022/05/22 09:29:59;;;;;;;;;2.00;2.00;;;;;;;;5121840;27;63709;-78
2022/05/22 09:32:30;;;;;;;;;2.67;1.00;;;;;;;;5123759;27;61826;-83
2022/05/22 09:35:08;;;;;;;;;1.00;1.00;;;;;;;;5123294;27;61827;-81
2022/05/22 09:37:39;;;;;;;;;1.00;1.00;;;;;;;;5123037;27;61907;-78
2022/05/22 09:40:11;;;;;;;;;2.67;0.33;;;;;;;;5122892;27;61870;-78
2022/05/22 09:43:14;;;;;;;;;1.33;1.00;;;;;;;;5120185;27;61915;-78
2022/05/22 09:45:58;;;;;;;;;0.00;0.00;;;;;;;;5056995;28;61858;-78
2022/05/22 09:48:23;;;;;;;;;1.00;1.00;;;;;;;;5059318;28;62303;-78
2022/05/22 09:50:49;;;;;;;;;0.67;0.67;;;;;;;;5058210;28;62690;-78
2022/05/22 09:53:14;;;;;;;;;1.00;1.00;;;;;;;;5058816;28;61912;-78
2022/05/22 09:55:39;;;;;;;;;0.00;0.00;;;;;;;;5058676;28;61915;-77
2022/05/22 09:58:15;;;;;;;;;2.25;1.25;;;;;;;;5042971;28;62170;-78
2022/05/22 10:00:40;;;;;;;;;2.33;1.33;;;;;;;;5040695;28;63181;-78
2022/05/22 10:03:08;;;;;;;;;0.00;0.00;;;;;;;;5027554;28;62239;-78
2022/05/22 10:05:51;;;;;;;;;1.67;0.67;;;;;;;;5056993;28;61985;-78
2022/05/22 10:08:17;;;;;;;;;1.00;1.00;;;;;;;;5059638;28;61915;-78
2022/05/22 10:10:49;;;;;;;;;2.00;0.00;;;;;;;;5058347;28;62022;-78
2022/05/22 10:13:28;;;;;;;;;1.67;1.67;;;;;;;;5059378;28;62107;-78
2022/05/22 10:16:12;;;;;;;;;0.67;0.00;;;;;;;;5049852;28;62287;-78
2022/05/22 10:18:56;;;;;;;;;0.67;0.67;;;;;;;;5083576;27;61858;-78
2022/05/22 10:21:54;;;;;;;;;1.00;1.00;;;;;;;;5100390;27;63884;-78
2022/05/22 10:24:38;;;;;;;;;1.00;1.00;;;;;;;;5059531;28;61734;-78
2022/05/22 10:27:22;;;;;;;;;3.67;1.00;;;;;;;;5059317;28;61992;-78
2022/05/22 10:29:54;;;;;;;;;1.00;1.00;;;;;;;;5059696;28;61930;-78
2022/05/22 10:32:31;;;;;;;;;3.00;2.00;;;;;;;;5041904;28;64928;-78
2022/05/22 10:35:06;;;;;;;;;2.00;2.00;;;;;;;;5058333;28;62150;-78
2022/05/22 10:37:41;;;;;;;;;1.00;1.00;;;;;;;;5059322;28;61866;-78
2022/05/22 10:40:08;;;;;;;;;2.00;1.00;;;;;;;;5042721;28;61894;-78
2022/05/22 10:42:47;;;;;;;;;1.00;1.00;;;;;;;;5058762;28;62850;-78
2022/05/22 10:45:18;;;;;;;;;3.33;3.00;;;;;;;;5059026;28;61922;-78
2022/05/22 10:47:43;;;;;;;;;2.00;2.00;;;;;;;;5041704;28;61922;-78
2022/05/22 10:50:17;;;;;;;;;0.67;0.67;;;;;;;;5058965;28;61857;-78
2022/05/22 10:52:42;;;;;;;;;1.67;1.67;;;;;;;;5058518;28;62633;-78
2022/05/22 10:55:19;;;;;;;;;3.00;3.00;;;;;;;;5041868;28;62063;-78
2022/05/22 10:57:52;;;;;;;;;11.75;7.75;;;;;;;;5058934;28;61805;-78
2022/05/22 11:00:17;;;;;;;;;3.25;3.25;;;;;;;;5078803;27;61785;-79
2022/05/22 11:02:43;;;;;;;;;3.00;3.00;;;;;;;;5099914;27;63756;-78
2022/05/22 11:05:16;;;;;;;;;4.25;3.75;;;;;;;;5101390;27;61831;-77
2022/05/22 11:07:44;;;;;;;;;3.75;2.50;;;;;;;;5101328;27;61919;-77
2022/05/22 11:10:12;;;;;;;;;0.00;0.00;;;;;;;;5101195;27;61777;-77
2022/05/22 11:12:38;;;;;;;;;3.75;3.75;;;;;;;;5120103;27;64193;-77
2022/05/22 11:15:08;;;;;;;;;4.00;2.75;;;;;;;;5122311;27;61761;-77
2022/05/22 11:17:34;;;;;;;;;6.75;4.00;;;;;;;;5122365;27;61885;-77
2022/05/22 11:20:02;;;;;;;;;3.67;2.33;;;;;;;;5120613;27;62052;-76
2022/05/22 11:22:33;;;;;;;;;43.25;30.75;;;;;;;;5122272;27;63022;-77
2022/05/22 11:25:16;;;;;;;;;13.00;11.50;;;;;;;;5122176;27;62169;-77
2022/05/22 11:27:44;;;;;;;;;6.25;5.00;;;;;;;;5122594;27;61858;-76
2022/05/22 11:30:23;;;;;;;;;7.75;5.75;;;;;;;;5122805;27;62077;-76
2022/05/22 11:33:00;;;;;;;;;3.67;2.67;;;;;;;;5121700;27;62713;-76
2022/05/22 11:35:26;;;;;;;;;4.00;3.25;;;;;;;;5122199;27;61993;-76
2022/05/22 11:37:57;;;;;;;;;6.75;5.50;;;;;;;;5121883;27;61814;-76
2022/05/22 11:40:22;;;;;;;;;20.00;16.75;;;;;;;;5122735;27;61850;-76
2022/05/22 11:42:52;;;;;;;;;39.25;30.50;;;;;;;;5121934;27;62019;-76
2022/05/22 11:45:21;;;;;;;;;12.50;11.00;;;;;;;;5123125;27;61849;-76
2022/05/22 11:48:05;;;;;;;;;36.75;30.00;;;;;;;;5124956;27;61830;-76
2022/05/22 11:50:30;;;;;;;;;16.75;12.25;;;;;;;;5124534;27;61824;-76
2022/05/22 11:53:07;;;;;;;;;7.75;6.25;;;;;;;;5125207;27;61996;-76
2022/05/22 11:55:51;;;;;;;;;8.25;6.75;;;;;;;;5119923;27;61801;-76
2022/05/22 11:58:36;;;;;;;;;7.25;7.25;;;;;;;;5124839;27;61752;-76
2022/05/22 12:01:13;;;;;;;;;1.67;1.67;;;;;;;;5124778;27;61901;-76
2022/05/22 12:03:48;;;;;;;;;5.25;4.00;;;;;;;;5123320;27;62730;-77
2022/05/22 12:06:16;;;;;;;;;4.00;2.00;;;;;;;;5123158;27;61965;-77
2022/05/22 12:08:41;;;;;;;;;3.00;2.00;;;;;;;;5123922;27;61791;-76
2022/05/22 12:11:06;;;;;;;;;4.25;0.50;;;;;;;;5124233;27;62130;-76
2022/05/22 12:13:39;;;;;;;;;2.00;2.00;;;;;;;;5123009;27;61957;-76
2022/05/22 12:16:10;;;;;;;;;4.50;3.00;;;;;;;;5122565;27;61828;-76
2022/05/22 12:18:54;;;;;;;;;1.33;1.33;;;;;;;;5119676;27;62506;-77
2022/05/22 12:21:32;;;;;;;;;3.00;2.25;;;;;;;;5121792;27;61893;-77
2022/05/22 12:24:05;;;;;;;;;4.00;3.00;;;;;;;;5120015;27;65056;-75
2022/05/22 12:26:31;;;;;;;;;3.00;2.00;;;;;;;;5123819;27;61854;-77
2022/05/22 12:28:59;;;;;;;;;4.25;4.00;;;;;;;;5123890;27;61819;-77
2022/05/22 12:31:35;;;;;;;;;5.00;4.00;;;;;;;;5122476;27;62194;-76
2022/05/22 12:34:14;;;;;;;;;3.00;2.25;;;;;;;;5123085;27;63830;-77
2022/05/22 12:36:42;;;;;;;;;2.67;1.67;;;;;;;;5125108;27;61765;-77
2022/05/22 12:39:09;;;;;;;;;2.33;2.33;;;;;;;;5124355;27;62335;-77
2022/05/22 12:41:44;;;;;;;;;7.50;3.75;;;;;;;;5125518;27;62576;-77
2022/05/22 12:44:09;;;;;;;;;2.67;1.67;;;;;;;;5122909;27;63666;-78
2022/05/22 12:46:36;;;;;;;;;3.00;3.00;;;;;;;;5123830;27;62159;-76
2022/05/22 12:49:06;;;;;;;;;3.00;3.00;;;;;;;;5121935;27;62072;-77
2022/05/22 12:51:36;;;;;;;;;4.00;4.00;;;;;;;;5116674;27;61926;-76
2022/05/22 12:54:28;;;;;;;;;3.00;3.00;;;;;;;;5121240;27;61889;-76
2022/05/22 12:57:06;;;;;;;;;2.00;2.00;;;;;;;;5117548;27;62075;-77
2022/05/22 12:59:32;;;;;;;;;3.75;1.50;;;;;;;;5122696;27;61921;-76
2022/05/22 13:01:58;;;;;;;;;5.67;4.33;;;;;;;;5122656;27;61882;-76
2022/05/22 13:04:33;;;;;;;;;4.67;1.67;;;;;;;;5121016;27;61882;-76
2022/05/22 13:07:01;;;;;;;;;7.00;6.00;;;;;;;;5122377;27;61946;-75
2022/05/22 13:09:41;;;;;;;;;8.25;7.75;;;;;;;;5122304;27;62084;-81
2022/05/22 13:12:09;;;;;;;;;17.75;13.00;;;;;;;;5121934;27;61984;-80
2022/05/22 13:14:40;;;;;;;;;10.75;10.75;;;;;;;;5120982;27;62629;-76
2022/05/22 13:17:06;;;;;;;;;14.75;14.00;;;;;;;;5121770;27;61996;-76
2022/05/22 13:19:32;;;;;;;;;18.00;12.75;;;;;;;;5119971;27;61978;-76
2022/05/22 13:22:08;;;;;;;;;14.00;11.25;;;;;;;;5122067;27;61967;-77
2022/05/22 13:24:33;;;;;;;;;4.50;4.00;;;;;;;;5121182;27;62115;-78
2022/05/22 13:27:00;;;;;;;;;3.25;2.00;;;;;;;;5119819;27;61990;-76
2022/05/22 13:29:34;;;;;;;;;3.33;1.33;;;;;;;;5120707;27;61972;-77
2022/05/22 13:32:00;;;;;;;;;2.00;1.75;;;;;;;;5122088;27;61948;-76
2022/05/22 13:34:27;;;;;;;;;3.00;2.00;;;;;;;;5119307;27;63605;-76
2022/05/22 13:36:56;;;;;;;;;7.50;3.50;;;;;;;;5122273;27;61899;-76
2022/05/22 13:39:42;;;;;;;;;5.75;2.75;;;;;;;;5118891;27;61935;-77
2022/05/22 13:42:08;;;;;;;;;1.75;1.75;;;;;;;;5111066;27;62290;-77
2022/05/22 13:44:42;;;;;;;;;2.00;1.67;;;;;;;;5118954;27;65072;-77
2022/05/22 13:47:26;;;;;;;;;4.00;2.75;;;;;;;;5118112;27;62162;-77
2022/05/22 13:52:34;;;;;;;;;6.50;4.00;;;;;;;;5121080;27;62437;-76
2022/05/22 13:52:56;;;;;;;;;3.25;1.75;;;;;;;;5120489;27;61659;-77
2022/05/22 13:55:23;;;;;;;;;2.50;2.50;;;;;;;;5117003;27;63817;-77
2022/05/22 13:57:55;;;;;;;;;3.33;3.33;;;;;;;;5120366;27;61823;-77
2022/05/22 14:00:23;;;;;;;;;2.00;2.00;;;;;;;;5121735;27;61768;-77
2022/05/22 14:02:54;;;;;;;;;1.33;1.33;;;;;;;;5121367;27;61850;-77
2022/05/22 14:05:19;;;;;;;;;1.50;1.00;;;;;;;;5119766;27;62171;-80
2022/05/22 14:07:52;;;;;;;;;1.00;1.00;;;;;;;;5118704;27;62149;-77
2022/05/22 14:10:38;;;;;;;;;2.00;0.67;;;;;;;;5121611;27;61812;-78
2022/05/22 14:13:13;;;;;;;;;2.00;1.33;;;;;;;;5116528;27;61783;-77
2022/05/22 14:15:38;;;;;;;;;1.67;1.67;;;;;;;;5120534;27;61945;-77
2022/05/22 14:18:16;;;;;;;;;1.25;1.25;;;;;;;;5121170;27;61922;-76
2022/05/22 14:20:44;;;;;;;;;2.67;1.67;;;;;;;;5119780;27;62046;-78
2022/05/22 14:23:20;;;;;;;;;2.00;2.00;;;;;;;;5121438;27;61958;-78
2022/05/22 14:25:46;;;;;;;;;2.67;1.67;;;;;;;;5118531;27;64260;-77
2022/05/22 14:28:13;;;;;;;;;1.00;1.00;;;;;;;;5120739;27;61747;-77
2022/05/22 14:30:39;;;;;;;;;2.67;2.67;;;;;;;;5120207;27;61752;-78
2022/05/22 14:33:08;;;;;;;;;0.00;0.00;;;;;;;;5121547;27;61689;-76
2022/05/22 14:35:35;;;;;;;;;1.00;1.00;;;;;;;;5119689;27;62694;-76
2022/05/22 14:38:11;;;;;;;;;1.00;1.00;;;;;;;;5119098;27;62045;-76
2022/05/22 14:40:44;;;;;;;;;0.67;0.67;;;;;;;;5120256;27;61908;-76
2022/05/22 14:43:11;;;;;;;;;0.67;0.67;;;;;;;;5120736;27;61975;-76
2022/05/22 14:45:40;;;;;;;;;0.67;0.67;;;;;;;;5118399;27;63817;-76
2022/05/22 14:48:07;;;;;;;;;1.00;1.00;;;;;;;;5120753;27;61738;-76
2022/05/22 14:50:33;;;;;;;;;0.00;0.00;;;;;;;;5120754;27;61997;-78
2022/05/22 14:53:02;;;;;;;;;1.67;1.67;;;;;;;;5120573;27;62290;-79
2022/05/22 14:55:31;;;;;;;;;1.33;1.33;;;;;;;;5120328;27;62642;-76
2022/05/22 14:58:00;;;;;;;;;0.67;0.67;;;;;;;;5119552;27;61875;-82
2022/05/22 15:00:29;;;;;;;;;0.67;0.67;;;;;;;;5120630;27;61885;-77
2022/05/22 15:02:54;;;;;;;;;3.00;1.00;;;;;;;;5119451;27;62160;-77